Time;durP1;ratioP1;P1;durP2;ratioP2;P2;SDS_P1;SDS_P2;PMS_P1;PMS_P2;Temp;Humidity;BMP_temperature;BMP_pressure;BME280_temperature;BME280_humidity;BME280_pressure;Samples;Min_cycle;Max_cycle;Signal;HPM_P1;HPM_P2
2021/04/11 00:01:09;;;;;;;6.87;4.30;;;;;;;11.19;43.96;99362.07;1808178;79;21258;-82
2021/04/11 00:03:35;;;;;;;7.67;4.70;;;;;;;11.17;43.98;99361.08;1808544;79;21257;-81
2021/04/11 00:06:02;;;;;;;6.30;4.28;;;;;;;11.16;44.05;99363.62;1808346;79;21270;-82
2021/04/11 00:08:29;;;;;;;8.35;4.47;;;;;;;11.15;44.05;99362.04;1808565;79;21257;-81
2021/04/11 00:11:01;;;;;;;8.25;4.47;;;;;;;11.16;44.07;99368.25;1807897;79;21081;-81
2021/04/11 00:13:30;;;;;;;6.30;4.58;;;;;;;11.13;44.09;99364.39;1808732;79;21120;-82
2021/04/11 00:15:57;;;;;;;7.50;4.20;;;;;;;11.10;44.16;99361.86;1807666;79;21577;-82
2021/04/11 00:18:23;;;;;;;6.40;4.58;;;;;;;11.07;44.24;99365.31;1808456;79;21134;-82
2021/04/11 00:20:50;;;;;;;7.60;4.90;;;;;;;11.05;44.28;99360.86;1808407;79;21262;-80
2021/04/11 00:23:17;;;;;;;7.70;4.78;;;;;;;11.03;44.30;99356.38;1808294;79;21174;-81
2021/04/11 00:25:44;;;;;;;7.08;4.60;;;;;;;11.02;44.35;99355.40;1808103;79;21152;-81
2021/04/11 00:28:12;;;;;;;6.83;4.47;;;;;;;11.01;44.38;99355.98;1808751;79;21097;-80
2021/04/11 00:30:38;;;;;;;;;;;;;;;11.01;44.36;99351.14;1811281;79;21143;-81
2021/04/11 00:33:05;;;;;;;7.12;4.35;;;;;;;11.03;44.25;99351.53;1808224;79;20138;-81
2021/04/11 00:35:32;;;;;;;6.22;4.05;;;;;;;11.02;44.18;99356.20;1808305;79;21314;-80
2021/04/11 00:37:59;;;;;;;7.53;4.35;;;;;;;10.99;44.29;99354.22;1808196;79;21547;-79
2021/04/11 00:40:31;;;;;;;9.53;4.58;;;;;;;11.00;44.36;99359.88;1808530;79;21135;-80
2021/04/11 00:43:06;;;;;;;8.83;4.70;;;;;;;10.98;44.40;99352.68;1808196;79;21140;-80
2021/04/11 00:46:03;;;;;;;6.90;3.98;;;;;;;10.97;44.53;99356.56;1808600;79;21520;-80
2021/04/11 00:48:30;;;;;;;8.13;4.50;;;;;;;10.95;44.55;99358.88;1808253;79;21270;-79
2021/04/11 00:50:59;;;;;;;7.67;4.80;;;;;;;10.90;44.66;99355.17;1808377;79;21140;-80
2021/04/11 00:53:26;;;;;;;7.28;4.72;;;;;;;10.89;44.68;99357.12;1808173;79;21295;-80
2021/04/11 00:55:53;;;;;;;9.05;5.40;;;;;;;10.87;44.76;99352.64;1808371;79;21175;-79
2021/04/11 00:58:21;;;;;;;7.40;4.70;;;;;;;10.88;44.83;99355.58;1808502;79;21116;-79
2021/04/11 01:00:48;;;;;;;8.03;5.05;;;;;;;10.87;44.83;99355.94;1808160;79;21136;-80
2021/04/11 01:03:19;;;;;;;5.93;4.50;;;;;;;10.85;44.89;99346.80;1808600;79;21274;-80
2021/04/11 01:05:46;;;;;;;7.95;5.10;;;;;;;10.83;44.97;99351.06;1808441;79;21097;-81
2021/04/11 01:08:15;;;;;;;8.85;4.65;;;;;;;10.80;45.07;99347.75;1808649;79;21254;-81
2021/04/11 01:10:54;;;;;;;6.95;4.62;;;;;;;10.79;45.09;99349.70;1808260;79;21100;-81
2021/04/11 01:13:21;;;;;;;7.90;4.62;;;;;;;10.77;45.08;99345.80;1808349;79;21258;-81
2021/04/11 01:15:47;;;;;;;8.57;4.67;;;;;;;10.75;45.12;99352.19;1808662;79;21147;-81
2021/04/11 01:18:14;;;;;;;7.40;4.37;;;;;;;10.75;45.11;99346.20;1808403;79;21115;-81
2021/04/11 01:20:40;;;;;;;7.67;5.10;;;;;;;10.77;45.10;99344.45;1819951;79;21127;-81
2021/04/11 01:23:13;;;;;;;6.80;4.85;;;;;;;10.77;45.10;99340.38;1823588;79;21151;-81
2021/04/11 01:25:42;;;;;;;6.10;4.12;;;;;;;10.77;45.10;99340.38;1823078;79;21115;-81
2021/04/11 01:28:14;;;;;;;6.30;4.17;;;;;;;10.81;45.07;99335.74;1823301;79;21103;-81
2021/04/11 01:30:41;;;;;;;7.78;4.08;;;;;;;10.82;45.00;99336.70;1822763;79;21134;-80
2021/04/11 01:33:14;;;;;;;6.47;4.47;;;;;;;10.82;44.92;99333.98;1823473;79;21142;-81
2021/04/11 01:35:40;;;;;;;7.45;4.40;;;;;;;10.82;44.90;99331.27;1822056;79;21601;-82
2021/04/11 01:38:07;;;;;;;7.15;4.10;;;;;;;10.83;44.86;99329.33;1823566;79;21150;-81
2021/04/11 01:40:42;;;;;;;5.95;4.15;;;;;;;10.85;44.82;99331.09;1823251;79;21175;-82
2021/04/11 01:43:09;;;;;;;7.50;4.10;;;;;;;10.85;44.82;99331.86;1823170;79;21107;-81
2021/04/11 01:45:37;;;;;;;7.72;4.00;;;;;;;10.84;44.86;99330.31;1793557;79;21174;-81
2021/04/11 01:48:04;;;;;;;9.08;4.50;;;;;;;10.83;44.89;99332.84;1823593;79;21147;-82
2021/04/11 01:50:30;;;;;;;6.42;4.25;;;;;;;10.83;44.90;99333.40;1823292;79;21140;-82
2021/04/11 01:52:58;;;;;;;5.42;4.22;;;;;;;10.81;44.91;99333.02;1823522;79;21114;-81
2021/04/11 01:55:26;;;;;;;6.70;4.20;;;;;;;10.79;44.91;99336.11;1823217;79;21151;-81
2021/04/11 01:57:53;;;;;;;5.62;4.00;;;;;;;10.78;44.94;99335.92;1823240;79;21151;-81
2021/04/11 02:00:26;;;;;;;6.72;4.05;;;;;;;10.78;44.91;99332.44;1823092;79;21135;-82
2021/04/11 02:02:54;;;;;;;6.22;3.72;;;;;;;10.77;44.93;99331.63;1823005;79;21115;-81
2021/04/11 02:05:21;;;;;;;6.30;4.10;;;;;;;10.77;44.95;99328.15;1822968;79;21124;-81
2021/04/11 02:07:47;;;;;;;6.97;4.03;;;;;;;10.77;44.93;99326.79;1823290;79;21141;-81
2021/04/11 02:10:16;;;;;;;6.83;4.00;;;;;;;10.77;44.93;99327.56;1823119;79;21562;-80
2021/04/11 02:12:43;;;;;;;5.12;3.98;;;;;;;10.78;44.87;99327.78;1822158;79;21610;-80
2021/04/11 02:15:12;;;;;;;8.48;4.65;;;;;;;10.79;44.83;99326.60;1820056;79;21139;-80
2021/04/11 02:17:39;;;;;;;5.17;3.65;;;;;;;10.80;44.80;99321.39;1822444;79;21120;-80
2021/04/11 02:20:07;;;;;;;5.05;3.90;;;;;;;10.80;44.75;99326.02;1817014;78;21128;-81
2021/04/11 02:22:34;;;;;;;5.08;3.67;;;;;;;10.79;44.75;99326.60;1812276;79;21563;-81
2021/04/11 02:25:00;;;;;;;5.58;3.70;;;;;;;10.78;44.76;99318.27;1808529;79;21281;-80
2021/04/11 02:27:27;;;;;;;5.78;3.65;;;;;;;10.78;44.71;99323.70;1808940;79;21128;-80
2021/04/11 02:29:53;;;;;;;5.15;3.50;;;;;;;10.79;44.66;99319.81;1760551;79;21582;-80
2021/04/11 02:32:21;;;;;;;5.15;4.15;;;;;;;10.80;44.61;99319.23;1808087;79;21290;-80
2021/04/11 02:34:47;;;;;;;;;;;;;;;10.81;44.60;99322.16;1810751;79;21262;-80
2021/04/11 02:37:21;;;;;;;5.22;3.70;;;;;;;10.85;44.45;99320.22;1808352;79;20138;-79
2021/04/11 02:39:49;;;;;;;5.58;3.75;;;;;;;10.86;44.35;99321.80;1808166;79;21670;-79
2021/04/11 02:42:19;;;;;;;;;;;;;;;10.82;44.48;99325.84;1810724;79;21143;-80
2021/04/11 02:44:47;;;;;;;5.72;4.10;;;;;;;10.84;44.40;99320.80;1807381;79;20249;-80
2021/04/11 02:47:14;;;;;;;6.05;4.12;;;;;;;10.83;44.38;99325.25;1808269;79;21108;-80
2021/04/11 02:49:43;;;;;;;4.78;3.98;;;;;;;10.80;44.49;99326.02;1785978;79;21154;-79
2021/04/11 02:52:16;;;;;;;5.45;3.92;;;;;;;10.79;44.54;99321.76;1808170;79;21278;-80
2021/04/11 02:54:42;;;;;;;5.90;3.45;;;;;;;10.79;44.56;99323.12;1802104;79;21262;-81
2021/04/11 02:57:09;;;;;;;6.22;3.67;;;;;;;10.79;44.52;99332.63;1808482;79;21310;-81
2021/04/11 02:59:37;;;;;;;6.17;3.47;;;;;;;10.80;44.54;99324.66;1760589;79;21140;-81
2021/04/11 03:02:04;;;;;;;4.92;3.77;;;;;;;10.80;44.56;99320.58;1808085;79;21275;-81
2021/04/11 03:04:30;;;;;;;6.70;3.67;;;;;;;10.79;44.54;99332.63;1808621;79;21246;-81
2021/04/11 03:07:02;;;;;;;6.10;3.80;;;;;;;10.78;44.57;99326.42;1808211;79;21698;-81
2021/04/11 03:09:33;;;;;;;6.50;3.80;;;;;;;10.79;44.59;99335.34;1808063;79;21701;-81
2021/04/11 03:12:00;;;;;;;6.55;3.55;;;;;;;10.79;44.56;99332.63;1808329;79;21294;-82
2021/04/11 03:14:29;;;;;;;6.78;3.92;;;;;;;10.79;44.58;99333.39;1808404;79;21160;-81
2021/04/11 03:16:55;;;;;;;5.40;3.55;;;;;;;10.78;44.60;99335.92;1811842;79;21144;-81
2021/04/11 03:19:25;;;;;;;5.17;3.62;;;;;;;10.75;44.62;99335.34;1808362;78;21273;-82
2021/04/11 03:21:51;;;;;;;5.60;3.80;;;;;;;10.75;44.65;99343.48;1801255;80;21117;-83
2021/04/11 03:24:18;;;;;;;6.67;3.77;;;;;;;10.73;44.69;99342.31;1801537;80;21265;-83
2021/04/11 03:26:48;;;;;;;4.90;3.62;;;;;;;10.71;44.68;99345.39;1801324;80;21144;-84
2021/04/11 03:29:17;;;;;;;5.87;3.50;;;;;;;10.70;44.69;99349.87;1783610;80;21140;-84
2021/04/11 03:32:04;;;;;;;4.80;3.65;;;;;;;10.66;44.74;99347.12;1801172;80;21144;-84
2021/04/11 03:34:31;;;;;;;5.25;3.58;;;;;;;10.63;44.71;99350.02;1800972;80;21128;-81
2021/04/11 03:36:57;;;;;;;6.30;3.85;;;;;;;10.60;44.82;99354.08;1801288;80;21551;-81
2021/04/11 03:39:24;;;;;;;5.20;3.40;;;;;;;10.60;44.82;99360.28;1801161;80;21147;-81
2021/04/11 03:41:50;;;;;;;6.72;3.90;;;;;;;10.60;44.83;99361.64;1801223;80;21551;-81
2021/04/11 03:44:21;;;;;;;5.53;3.80;;;;;;;10.61;44.81;99369.20;1801565;80;21121;-81
2021/04/11 03:46:54;;;;;;;5.15;3.60;;;;;;;10.59;44.85;99370.95;1801197;79;21127;-81
2021/04/11 03:49:30;;;;;;;5.42;3.20;;;;;;;10.59;44.90;99370.19;1797674;80;21160;-81
2021/04/11 03:51:59;;;;;;;6.25;3.70;;;;;;;10.57;44.86;99369.19;1799841;80;21609;-81
2021/04/11 03:54:35;;;;;;;5.53;3.17;;;;;;;10.55;44.92;99377.52;1801221;80;21258;-81
2021/04/11 03:57:07;;;;;;;6.62;3.50;;;;;;;10.54;44.94;99372.67;1800073;80;21152;-81
2021/04/11 03:59:46;;;;;;;4.58;3.22;;;;;;;10.56;44.88;99377.73;1799942;80;21302;-82
2021/04/11 04:02:13;;;;;;;5.25;3.62;;;;;;;10.60;44.88;99383.37;1801264;80;21116;-81
2021/04/11 04:04:39;;;;;;;5.37;3.47;;;;;;;10.64;44.81;99384.77;1772569;80;21164;-81
2021/04/11 04:07:10;;;;;;;6.50;3.80;;;;;;;10.66;44.76;99383.78;1801283;79;21587;-81
2021/04/11 04:09:37;;;;;;;5.85;3.60;;;;;;;10.71;44.64;99387.50;1801098;80;21262;-83
2021/04/11 04:12:10;;;;;;;6.22;4.00;;;;;;;10.76;44.54;99393.16;1801276;80;21278;-83
2021/04/11 04:14:46;;;;;;;5.20;3.67;;;;;;;10.85;44.38;99398.42;1801232;79;21547;-84
2021/04/11 04:17:44;;;;;;;5.40;3.60;;;;;;;10.96;44.22;99397.70;1786044;80;21148;-82
2021/04/11 04:20:19;;;;;;;5.22;3.50;;;;;;;11.10;44.03;99401.83;1802918;79;21258;-84
2021/04/11 04:23:04;;;;;;;5.83;3.65;;;;;;;11.27;43.76;99392.96;1808165;79;21701;-83
2021/04/11 04:26:07;;;;;;;8.70;4.10;;;;;;;11.50;43.49;99404.08;1808234;79;21258;-83
2021/04/11 04:28:47;;;;;;;6.80;4.65;;;;;;;11.70;43.15;99406.66;1808170;79;21274;-83
2021/04/11 04:31:38;;;;;;;6.10;3.83;;;;;;;11.91;42.87;99402.41;1808092;79;21321;-81
2021/04/11 04:34:25;;;;;;;5.25;3.87;;;;;;;12.14;42.53;99404.73;1808271;79;21270;-82
2021/04/11 04:37:12;;;;;;;6.83;3.90;;;;;;;12.32;42.19;99408.22;1808287;79;21298;-82
2021/04/11 04:39:58;;;;;;;5.33;3.90;;;;;;;12.47;41.98;99389.13;1808488;79;21123;-82
2021/04/11 04:42:31;;;;;;;6.33;4.10;;;;;;;12.54;41.70;99395.92;1808367;79;21273;-81
2021/04/11 04:45:05;;;;;;;6.80;4.03;;;;;;;12.62;41.60;99391.42;1800931;79;21709;-80
2021/04/11 04:47:38;;;;;;;5.60;4.15;;;;;;;12.70;41.39;99384.60;1791340;79;21144;-80
2021/04/11 04:50:42;;;;;;;6.12;4.15;;;;;;;12.76;41.25;99387.10;1808320;79;21218;-80
2021/04/11 04:53:28;;;;;;;6.40;3.80;;;;;;;12.82;41.14;99390.41;1808495;79;21135;-80
2021/04/11 04:55:56;;;;;;;4.65;3.67;;;;;;;12.85;41.02;99386.89;1808209;79;21626;-81
2021/04/11 04:58:26;;;;;;;6.15;4.85;;;;;;;12.94;40.85;99387.05;1808366;79;21607;-80
2021/04/11 05:01:01;;;;;;;5.47;4.05;;;;;;;13.06;40.76;99386.00;1808424;79;21654;-80
2021/04/11 05:03:33;;;;;;;6.33;3.75;;;;;;;13.13;40.55;99384.44;1808462;79;21159;-81
2021/04/11 05:06:11;;;;;;;8.23;3.87;;;;;;;13.18;40.39;99384.80;1808453;79;21109;-81
2021/04/11 05:08:51;;;;;;;;;;;;;;;13.26;40.27;99382.25;1811110;79;21717;-81
2021/04/11 05:11:21;;;;;;;7.72;4.53;;;;;;;13.42;40.15;99380.41;1808426;79;20133;-82
2021/04/11 05:14:07;;;;;;;8.30;4.28;;;;;;;13.48;39.99;99388.35;1808364;79;21712;-80
2021/04/11 05:16:37;;;;;;;7.87;4.30;;;;;;;13.46;39.72;99384.47;1808325;79;21136;-81
2021/04/11 05:19:10;;;;;;;6.85;4.08;;;;;;;13.39;39.55;99385.87;1807661;79;21155;-81
2021/04/11 05:21:40;;;;;;;5.17;3.35;;;;;;;13.36;39.49;99383.34;1783433;79;22061;-82
2021/04/11 05:24:13;;;;;;;7.30;3.87;;;;;;;13.37;39.36;99382.75;1809482;79;21558;-82
2021/04/11 05:26:47;;;;;;;5.78;3.95;;;;;;;13.40;39.25;99390.16;1809495;79;21558;-83
2021/04/11 05:29:30;;;;;;;4.83;3.62;;;;;;;13.45;39.14;99385.06;1809610;79;21104;-82
2021/04/11 05:31:56;;;;;;;5.28;4.20;;;;;;;13.62;39.11;99388.84;1809532;79;21136;-82
2021/04/11 05:34:24;;;;;;;7.53;4.28;;;;;;;13.95;38.66;99391.52;1809655;79;21129;-81
2021/04/11 05:37:20;;;;;;;5.85;4.10;;;;;;;14.30;38.18;99392.98;1809412;79;21159;-83
2021/04/11 05:39:49;;;;;;;7.72;3.92;;;;;;;14.69;37.65;99392.59;1809965;79;21123;-83
2021/04/11 05:42:48;;;;;;;7.58;4.50;;;;;;;14.95;37.07;99395.23;1809432;79;21543;-83
2021/04/11 05:45:41;;;;;;;6.00;3.70;;;;;;;15.04;36.81;99386.53;1809547;79;21472;-83
2021/04/11 05:48:20;;;;;;;6.30;3.90;;;;;;;15.07;36.68;99387.08;1809466;79;21551;-82
2021/04/11 05:51:01;;;;;;;5.60;3.55;;;;;;;15.04;36.60;99386.53;1809428;79;21136;-81
2021/04/11 05:53:41;;;;;;;6.47;3.83;;;;;;;14.98;36.62;99390.91;1809468;79;21592;-81
2021/04/11 05:56:14;;;;;;;6.87;3.70;;;;;;;15.08;36.57;99393.48;1809223;79;21134;-83
2021/04/11 05:58:42;;;;;;;7.08;3.70;;;;;;;15.34;36.11;99391.81;1809420;79;21273;-81
2021/04/11 06:01:12;;;;;;;5.05;3.85;;;;;;;15.37;36.01;99392.35;1809446;79;21270;-83
2021/04/11 06:03:43;;;;;;;5.95;3.98;;;;;;;15.95;35.63;99397.16;1808454;79;21164;-83
2021/04/11 06:06:28;;;;;;;5.40;4.33;;;;;;;17.53;33.46;99391.56;1809268;79;21132;-81
2021/04/11 06:09:07;;;;;;;4.72;3.47;;;;;;;19.36;30.80;99390.93;1809344;79;21127;-81
2021/04/11 06:11:55;;;;;;;6.42;3.90;;;;;;;20.95;28.46;99400.47;1789946;79;21132;-82
2021/04/11 06:14:38;;;;;;;7.22;3.58;;;;;;;22.04;26.93;99397.22;1809440;79;21112;-91
2021/04/11 06:17:07;;;;;;;5.90;3.90;;;;;;;22.98;25.94;99388.52;1792073;79;21166;-92
2021/04/11 06:19:34;;;;;;;6.60;3.52;;;;;;;23.99;24.81;99388.73;1809435;79;21281;-91
2021/04/11 06:22:19;;;;;;;5.97;3.77;;;;;;;25.51;23.30;99379.78;1803252;79;21139;-92
2021/04/11 06:24:52;;;;;;;6.35;3.60;;;;;;;25.51;23.30;99379.78;1801129;80;21629;-93
2021/04/11 06:27:37;;;;;;;7.67;3.70;;;;;;;26.22;22.21;99386.66;1801233;79;21132;-81
2021/04/11 06:30:31;;;;;;;4.80;3.27;;;;;;;26.50;21.71;99381.44;1855376;77;23480;-82
2021/04/11 06:33:10;;;;;;;6.78;3.70;;;;;;;26.66;21.50;99382.89;1827732;78;21120;-83
2021/04/11 06:35:43;;;;;;;7.53;4.22;;;;;;;27.60;20.68;99380.76;1791810;80;21148;-83
2021/04/11 06:38:10;;;;;;;6.25;3.40;;;;;;;28.36;20.03;99389.78;1759443;81;21266;-85
2021/04/11 06:40:58;;;;;;;5.08;3.20;;;;;;;29.05;19.30;99393.64;1752440;82;21169;-87
2021/04/11 06:43:28;;;;;;;4.70;3.27;;;;;;;29.73;18.85;99392.31;1760221;81;21310;-84
2021/04/11 06:46:07;;;;;;;7.65;4.37;;;;;;;30.69;18.13;99388.50;1791558;80;21152;-84
2021/04/11 06:48:43;;;;;;;6.87;3.50;;;;;;;31.30;17.59;99390.73;1760983;80;21639;-85
2021/04/11 06:51:25;;;;;;;5.37;3.10;;;;;;;31.95;17.05;99398.14;1791197;80;21571;-86
2021/04/11 06:54:09;;;;;;;6.05;3.22;;;;;;;32.11;16.88;99399.23;1791392;80;21148;-83
2021/04/11 06:57:05;;;;;;;5.03;3.30;;;;;;;32.18;16.74;99394.44;1754786;80;21125;-85
2021/04/11 06:59:47;;;;;;;5.28;3.00;;;;;;;32.01;16.65;99400.27;1791764;80;21176;-83
2021/04/11 07:02:51;;;;;;;6.00;2.80;;;;;;;31.78;16.71;99404.68;1791802;80;21125;-82
2021/04/11 07:05:24;;;;;;;4.87;3.10;;;;;;;31.49;16.74;99407.67;1791770;80;21168;-83
2021/04/11 07:08:18;;;;;;;4.08;2.87;;;;;;;30.82;17.10;99401.18;1791836;80;21599;-92
2021/04/11 07:10:53;;;;;;;5.15;3.15;;;;;;;30.93;17.05;99407.46;1790380;80;21606;-82
2021/04/11 07:13:44;;;;;;;4.00;2.77;;;;;;;31.31;17.00;99416.09;1791864;80;21450;-82
2021/04/11 07:16:17;;;;;;;4.78;3.12;;;;;;;32.03;16.41;99409.69;1791880;80;21574;-83
2021/04/11 07:19:00;;;;;;;5.67;3.05;;;;;;;32.35;16.05;99420.27;1746177;80;21196;-83
2021/04/11 07:21:46;;;;;;;5.22;2.45;;;;;;;32.33;15.93;99414.43;1791861;80;21133;-82
2021/04/11 07:24:28;;;;;;;4.95;2.90;;;;;;;32.15;15.82;99413.11;1791856;80;21152;-82
2021/04/11 07:27:16;;;;;;;3.65;2.83;;;;;;;31.92;15.88;99421.05;1791745;80;21113;-83
2021/04/11 07:30:20;;;;;;;3.10;2.67;;;;;;;31.66;16.03;99429.21;1786151;80;21151;-82
2021/04/11 07:33:08;;;;;;;4.62;3.12;;;;;;;32.11;15.67;99418.91;1783549;80;21191;-83
2021/04/11 07:35:55;;;;;;;4.20;2.75;;;;;;;32.44;15.65;99420.52;1749591;82;21153;-83
2021/04/11 07:38:37;;;;;;;6.03;3.10;;;;;;;33.05;15.23;99413.96;1778175;80;21627;-87
2021/04/11 07:41:16;;;;;;;4.67;2.90;;;;;;;33.19;15.10;99418.33;1821284;79;21610;-88
2021/04/11 07:43:51;;;;;;;5.45;3.00;;;;;;;33.62;14.74;99418.77;1820323;79;21113;-88
2021/04/11 07:46:41;;;;;;;5.35;3.15;;;;;;;34.47;14.30;99427.08;1821739;78;21136;-82
2021/04/11 07:49:17;;;;;;;4.80;2.92;;;;;;;34.88;13.93;99415.04;1782630;80;21184;-82
2021/04/11 07:51:53;;;;;;;5.55;3.47;;;;;;;35.64;13.53;99418.46;1812641;79;21149;-83
2021/04/11 07:54:52;;;;;;;4.83;3.10;;;;;;;35.74;13.28;99409.56;1782830;80;21156;-82
2021/04/11 07:57:28;;;;;;;3.50;2.65;;;;;;;35.52;13.37;99422.97;1799724;79;21138;-80
2021/04/11 08:00:09;;;;;;;4.23;2.73;;;;;;;35.81;13.25;99418.00;1821753;79;21152;-83
2021/04/11 08:02:55;;;;;;;4.42;2.80;;;;;;;36.13;13.03;99415.56;1782856;80;21113;-83
2021/04/11 08:05:46;;;;;;;4.37;2.90;;;;;;;35.87;12.91;99403.80;1820965;79;21135;-84
2021/04/11 08:08:31;;;;;;;3.90;2.37;;;;;;;35.73;12.97;99409.47;1821772;79;21121;-85
2021/04/11 08:11:13;;;;;;;4.65;2.55;;;;;;;36.36;12.71;99419.14;1782491;80;21149;-80
2021/04/11 08:14:09;;;;;;;3.40;2.55;;;;;;;36.71;12.28;99409.09;1820209;79;21124;-81
2021/04/11 08:16:48;;;;;;;3.47;2.40;;;;;;;37.07;12.10;99401.89;1821807;79;21105;-82
2021/04/11 08:19:33;;;;;;;3.83;2.35;;;;;;;37.04;11.87;99401.61;1822026;79;21547;-82
2021/04/11 08:22:37;;;;;;;5.15;2.90;;;;;;;37.13;11.78;99403.12;1812427;79;21688;-82
2021/04/11 08:25:16;;;;;;;3.95;2.62;;;;;;;37.32;11.67;99402.74;1814601;79;21583;-86
2021/04/11 08:28:05;;;;;;;4.28;3.10;;;;;;;37.14;11.69;99402.48;1818527;79;21112;-81
2021/04/11 08:30:44;;;;;;;4.97;2.75;;;;;;;37.09;11.78;99414.09;1780792;80;21231;-83
2021/04/11 08:33:31;;;;;;;3.40;2.45;;;;;;;37.48;11.29;99410.58;1780748;80;21148;-82
2021/04/11 08:36:07;;;;;;;5.62;3.00;;;;;;;36.51;11.62;99417.04;1780405;80;21152;-81
2021/04/11 08:38:52;;;;;;;4.90;2.40;;;;;;;36.13;11.96;99424.05;1780510;80;21168;-82
2021/04/11 08:41:57;;;;;;;2.95;2.40;;;;;;;36.29;11.72;99410.73;1780877;80;21140;-82
2021/04/11 08:44:30;;;;;;;5.30;2.72;;;;;;;36.16;11.95;99407.37;1780256;80;21175;-82
2021/04/11 08:47:02;;;;;;;4.40;2.80;;;;;;;37.04;11.59;99407.94;1780980;80;21177;-82
2021/04/11 08:49:38;;;;;;;5.33;2.52;;;;;;;37.65;11.16;99402.92;1780468;80;21595;-82
2021/04/11 08:52:23;;;;;;;5.42;3.05;;;;;;;38.22;10.85;99396.72;1781275;80;21128;-81
2021/04/11 08:54:54;;;;;;;3.42;2.45;;;;;;;37.59;10.76;99397.45;1781239;80;21562;-81
2021/04/11 08:57:27;;;;;;;5.87;2.92;;;;;;;36.52;11.12;99401.56;1773385;80;21147;-82
2021/04/11 08:59:59;;;;;;;5.10;2.40;;;;;;;35.78;11.30;99398.67;1780543;80;21140;-80
2021/04/11 09:02:38;;;;;;;4.42;3.05;;;;;;;34.24;12.01;99392.98;1781083;80;21144;-79
2021/04/11 09:05:21;;;;;;;5.20;2.45;;;;;;;33.77;12.56;99389.41;1781161;80;21157;-80
2021/04/11 09:08:21;;;;;;;5.37;2.80;;;;;;;34.12;12.44;99386.70;1781662;80;21160;-80
2021/04/11 09:11:18;;;;;;;3.70;2.30;;;;;;;34.53;12.11;99381.83;1814763;77;23025;-80
2021/04/11 09:13:51;;;;;;;4.62;2.55;;;;;;;33.95;12.46;99388.44;1786896;80;21125;-81
2021/04/11 09:16:24;;;;;;;5.40;2.92;;;;;;;34.30;12.45;99376.59;1786621;80;21275;-80
2021/04/11 09:19:13;;;;;;;5.97;2.85;;;;;;;34.26;12.22;99384.72;1786820;80;21136;-80
2021/04/11 09:21:49;;;;;;;3.80;2.72;;;;;;;34.46;12.34;99381.11;1786703;80;21149;-79
2021/04/11 09:24:31;;;;;;;3.98;2.60;;;;;;;34.85;11.89;99387.27;1786781;80;21105;-80
2021/04/11 09:27:21;;;;;;;5.20;2.50;;;;;;;33.80;12.25;99379.11;1786902;80;21287;-80
2021/04/11 09:30:09;;;;;;;5.55;2.90;;;;;;;33.29;12.73;99368.02;1786891;80;21501;-81
2021/04/11 09:32:54;;;;;;;6.50;2.87;;;;;;;32.73;12.78;99371.82;1786887;80;21524;-81
2021/04/11 09:35:56;;;;;;;7.47;2.95;;;;;;;31.81;13.44;99361.52;1786631;80;21140;-80
2021/04/11 09:38:35;;;;;;;5.15;2.60;;;;;;;31.76;13.66;99361.59;1786870;80;21156;-81
2021/04/11 09:41:14;;;;;;;4.47;2.70;;;;;;;31.22;13.82;99347.69;1786789;80;21251;-81
2021/04/11 09:44:14;;;;;;;4.15;2.62;;;;;;;30.27;14.50;99356.13;1785728;80;21133;-80
2021/04/11 09:46:56;;;;;;;4.60;3.00;;;;;;;29.05;15.28;99351.05;1786894;80;21678;-80
2021/04/11 09:49:38;;;;;;;4.75;2.90;;;;;;;27.53;16.49;99359.53;1740793;82;21183;-80
2021/04/11 09:52:41;;;;;;;3.95;2.50;;;;;;;26.56;17.48;99340.50;1870800;76;22987;-79
2021/04/11 09:55:25;;;;;;;3.62;2.67;;;;;;;26.30;17.99;99336.27;1823168;79;21554;-80
2021/04/11 09:57:58;;;;;;;3.58;2.60;;;;;;;26.15;18.15;99342.56;1823047;79;21127;-80
2021/04/11 10:00:31;;;;;;;5.05;3.00;;;;;;;25.82;18.46;99348.59;1823230;79;21115;-80
2021/04/11 10:03:37;;;;;;;4.62;2.83;;;;;;;25.51;18.76;99343.63;1823186;79;21104;-80
2021/04/11 10:06:30;;;;;;;5.37;2.85;;;;;;;25.38;18.73;99352.28;1823010;79;21103;-81
2021/04/11 10:09:20;;;;;;;6.10;3.90;;;;;;;24.99;19.30;99341.89;1823302;79;21152;-80
2021/04/11 10:11:56;;;;;;;6.90;3.08;;;;;;;25.14;19.28;99345.44;1822959;79;21135;-81
2021/04/11 10:14:58;;;;;;;3.92;2.92;;;;;;;25.15;19.31;99362.90;1822992;79;21131;-82
2021/04/11 10:17:49;;;;;;;6.97;2.80;;;;;;;24.81;19.49;99351.97;1823240;79;21551;-80
2021/04/11 10:20:45;;;;;;;5.97;3.35;;;;;;;24.43;19.68;99346.45;1823111;79;21284;-82
2021/04/11 10:23:17;;;;;;;4.42;2.80;;;;;;;23.68;20.17;99347.59;1823214;79;21112;-80
2021/04/11 10:25:49;;;;;;;4.45;2.90;;;;;;;23.37;20.45;99338.19;1791754;79;21289;-80
2021/04/11 10:28:42;;;;;;;5.37;2.70;;;;;;;23.31;20.62;99338.69;1789443;80;21328;-81
2021/04/11 10:31:15;;;;;;;4.87;2.72;;;;;;;23.14;20.94;99346.61;1790314;80;21147;-80
2021/04/11 10:33:48;;;;;;;4.42;2.92;;;;;;;23.11;21.04;99347.55;1791126;80;21277;-81
2021/04/11 10:36:21;;;;;;;4.78;2.85;;;;;;;22.93;21.12;99340.64;1790510;80;21316;-81
2021/04/11 10:39:28;;;;;;;5.45;3.27;;;;;;;22.78;21.28;99330.22;1790029;80;21293;-81
2021/04/11 10:42:10;;;;;;;4.20;2.75;;;;;;;22.79;21.36;99326.21;1790746;80;21721;-82
2021/04/11 10:44:57;;;;;;;3.75;2.60;;;;;;;22.70;21.38;99332.38;1898133;75;22829;-79
2021/04/11 10:47:48;;;;;;;6.35;3.02;;;;;;;22.47;21.60;99333.80;1872522;77;21110;-81
2021/04/11 10:50:30;;;;;;;5.47;2.92;;;;;;;22.34;21.76;99323.68;1872936;77;21148;-81
2021/04/11 10:53:26;;;;;;;6.12;2.72;;;;;;;22.23;22.07;99321.97;1872261;76;21113;-81
2021/04/11 10:56:17;;;;;;;5.03;2.70;;;;;;;22.26;22.30;99330.75;1872356;77;21121;-81
2021/04/11 10:59:03;;;;;;;3.90;2.75;;;;;;;22.17;22.40;99326.56;1872009;77;21141;-80
2021/04/11 11:01:52;;;;;;;4.53;2.75;;;;;;;21.96;22.53;99319.93;1872481;77;21559;-82
2021/04/11 11:04:27;;;;;;;5.28;3.12;;;;;;;21.80;22.85;99321.60;1872440;77;21144;-83
2021/04/11 11:07:26;;;;;;;3.92;2.90;;;;;;;21.83;22.98;99316.56;1872451;77;21121;-81
2021/04/11 11:09:54;;;;;;;;;;;;;;;21.74;23.11;99311.77;1874724;77;21240;-82
2021/04/11 11:12:41;;;;;;;5.30;2.45;;;;;;;21.61;22.95;99318.06;1872500;77;20225;-81
2021/04/11 11:15:11;;;;;;;4.50;2.90;;;;;;;21.43;23.21;99316.77;1872074;77;21117;-79
2021/04/11 11:18:01;;;;;;;5.53;2.95;;;;;;;21.36;23.38;99323.95;1872454;77;21532;-80
2021/04/11 11:20:46;;;;;;;3.67;2.60;;;;;;;21.30;23.69;99327.12;1872477;76;21133;-80
2021/04/11 11:23:50;;;;;;;4.80;2.87;;;;;;;21.48;23.68;99320.94;1839488;77;21141;-79
2021/04/11 11:26:56;;;;;;;3.65;2.65;;;;;;;21.45;23.70;99317.70;1872152;77;21156;-79
2021/04/11 11:29:41;;;;;;;4.42;2.70;;;;;;;21.31;23.84;99307.17;1872454;77;21132;-81
2021/04/11 11:32:10;;;;;;;5.83;3.25;;;;;;;21.04;23.93;99291.44;1872374;77;21109;-79
2021/04/11 11:34:50;;;;;;;5.22;2.87;;;;;;;20.84;24.18;99309.77;1872234;77;21121;-80
2021/04/11 11:37:26;;;;;;;6.22;2.70;;;;;;;20.82;24.12;99299.78;1872131;77;21164;-79
2021/04/11 11:40:18;;;;;;;5.08;2.65;;;;;;;20.82;24.27;99310.05;1872414;77;21548;-78
2021/04/11 11:42:57;;;;;;;5.22;3.02;;;;;;;20.76;24.32;99299.42;1871913;76;21098;-80
2021/04/11 11:45:30;;;;;;;4.03;2.83;;;;;;;20.73;24.39;99302.47;1872107;77;21259;-78
2021/04/11 11:48:16;;;;;;;4.45;2.67;;;;;;;20.66;24.39;99297.23;1826508;77;21157;-79
2021/04/11 11:50:58;;;;;;;3.55;2.50;;;;;;;20.59;24.64;99294.11;1872279;76;21137;-80
2021/04/11 11:53:31;;;;;;;3.92;2.65;;;;;;;20.57;24.73;99281.98;1872387;76;21129;-83
2021/04/11 11:56:07;;;;;;;4.10;2.45;;;;;;;20.56;24.73;99277.08;1871685;77;21268;-80
2021/04/11 11:58:52;;;;;;;5.33;2.60;;;;;;;20.56;24.79;99289.50;1872129;77;21153;-80
2021/04/11 12:01:28;;;;;;;4.12;2.45;;;;;;;20.51;24.81;99284.53;1871576;77;21129;-81
2021/04/11 12:04:27;;;;;;;4.33;2.67;;;;;;;20.40;24.80;99284.16;1842556;77;22845;-81
2021/04/11 12:06:55;;;;;;;4.85;2.70;;;;;;;20.43;24.82;99291.53;1781018;79;21560;-82
2021/04/11 12:09:30;;;;;;;3.75;2.45;;;;;;;20.46;24.59;99287.89;1823356;79;21555;-82
2021/04/11 12:12:06;;;;;;;5.28;3.00;;;;;;;20.37;24.68;99289.95;1823339;79;21143;-82
2021/04/11 12:14:57;;;;;;;4.58;2.83;;;;;;;20.29;24.87;99289.29;1823041;79;21136;-82
2021/04/11 12:17:52;;;;;;;4.85;2.90;;;;;;;20.24;25.09;99282.97;1733306;81;21163;-80
2021/04/11 12:20:25;;;;;;;5.15;2.95;;;;;;;20.23;25.25;99285.58;1816070;79;21267;-84
2021/04/11 12:22:55;;;;;;;3.55;2.65;;;;;;;20.23;25.11;99278.68;1823127;79;21135;-85